createdAt,value
2023-04-24T00:02:04.621Z,1.40
2023-04-24T00:04:33.054Z,3.30
2023-04-24T00:07:01.267Z,2.13
2023-04-24T00:09:28.504Z,3.23
2023-04-24T00:11:55.884Z,2.37
2023-04-24T00:14:23.181Z,3.50
2023-04-24T00:16:50.456Z,1.20
2023-04-24T00:19:17.606Z,0.80
2023-04-24T00:21:44.904Z,1.07
2023-04-24T00:24:12.119Z,1.37
2023-04-24T00:26:39.270Z,0.90
2023-04-24T00:29:06.349Z,1.53
2023-04-24T00:31:35.949Z,1.77
2023-04-24T00:34:04.144Z,0.77
2023-04-24T00:36:32.012Z,0.87
2023-04-24T00:38:59.092Z,2.60
2023-04-24T00:41:26.587Z,1.20
2023-04-24T00:43:54.357Z,5.00
2023-04-24T00:46:22.886Z,1.20
2023-04-24T00:48:50.329Z,1.10
2023-04-24T00:51:17.913Z,1.27
2023-04-24T00:53:45.007Z,0.80
2023-04-24T00:56:12.740Z,1.07
2023-04-24T00:58:40.936Z,0.97
2023-04-24T01:01:08.453Z,0.70
2023-04-24T01:03:38.384Z,0.60
2023-04-24T01:06:06.793Z,1.43
2023-04-24T01:08:35.839Z,0.53
2023-04-24T01:11:06.193Z,1.37
2023-04-24T01:13:33.992Z,0.40
2023-04-24T01:16:02.037Z,2.63
2023-04-24T01:18:29.694Z,0.43
2023-04-24T01:21:00.865Z,1.10
2023-04-24T01:23:28.159Z,0.50
2023-04-24T01:25:55.677Z,1.13
2023-04-24T01:28:23.699Z,0.60
2023-04-24T01:30:51.087Z,1.87
2023-04-24T01:33:18.666Z,0.97
2023-04-24T01:35:46.469Z,0.97
2023-04-24T01:38:13.722Z,0.93
2023-04-24T01:40:40.835Z,1.07
2023-04-24T01:43:08.244Z,0.87
2023-04-24T01:45:35.450Z,0.50
2023-04-24T01:48:05.414Z,1.80
2023-04-24T01:50:32.589Z,0.93
2023-04-24T01:53:00.007Z,0.97
2023-04-24T01:55:27.268Z,0.90
2023-04-24T01:57:57.182Z,2.67
2023-04-24T02:00:25.848Z,1.27
2023-04-24T02:02:54.186Z,0.40
2023-04-24T02:05:21.509Z,0.40
2023-04-24T02:07:48.633Z,0.57
2023-04-24T02:10:15.757Z,0.60
2023-04-24T02:12:43.451Z,1.20
2023-04-24T02:15:11.392Z,0.70
2023-04-24T02:17:38.798Z,3.00
2023-04-24T02:20:07.707Z,0.47
2023-04-24T02:22:34.790Z,0.80
2023-04-24T02:25:02.828Z,3.60
2023-04-24T02:27:29.935Z,0.50
2023-04-24T02:29:57.754Z,2.20
2023-04-24T02:32:24.890Z,0.90
2023-04-24T02:34:52.004Z,0.30
2023-04-24T02:37:19.072Z,0.47
2023-04-24T02:39:46.178Z,0.73
2023-04-24T02:42:13.201Z,1.60
2023-04-24T02:44:40.386Z,1.67
2023-04-24T02:47:07.531Z,1.17
2023-04-24T02:49:34.614Z,0.67
2023-04-24T02:52:01.657Z,0.37
2023-04-24T02:54:28.876Z,1.27
2023-04-24T02:56:56.176Z,1.57
2023-04-24T02:59:23.328Z,0.63
2023-04-24T03:01:50.418Z,0.67
2023-04-24T03:04:17.802Z,1.63
2023-04-24T03:06:44.965Z,0.40
2023-04-24T03:09:12.339Z,1.27
2023-04-24T03:11:39.460Z,0.57
2023-04-24T03:14:08.921Z,0.40
2023-04-24T03:16:38.750Z,0.40
2023-04-24T03:19:07.523Z,3.17
2023-04-24T03:21:41.868Z,0.90
2023-04-24T03:24:10.430Z,0.40
2023-04-24T03:26:38.525Z,0.50
2023-04-24T03:29:18.560Z,1.50
2023-04-24T03:31:45.897Z,0.87
2023-04-24T03:34:13.025Z,3.67
2023-04-24T03:36:40.663Z,0.50
2023-04-24T03:39:09.091Z,0.70
2023-04-24T03:41:37.992Z,0.90
2023-04-24T03:44:12.246Z,1.03
2023-04-24T03:46:39.496Z,0.70
2023-04-24T03:49:07.658Z,0.77
2023-04-24T03:51:38.422Z,4.50
2023-04-24T03:54:17.204Z,5.30
2023-04-24T03:56:46.012Z,0.80
2023-04-24T03:59:14.513Z,1.13
2023-04-24T04:01:44.657Z,0.50
2023-04-24T04:04:15.749Z,1.67
2023-04-24T04:06:45.305Z,1.07
2023-04-24T04:09:13.431Z,0.50
2023-04-24T04:11:40.867Z,1.00
2023-04-24T04:14:07.975Z,1.67
2023-04-24T04:16:37.729Z,1.63
2023-04-24T04:19:06.660Z,1.07
2023-04-24T04:21:34.466Z,2.33
2023-04-24T04:24:15.029Z,0.60
2023-04-24T04:26:48.099Z,2.00
2023-04-24T04:29:25.012Z,0.97
2023-04-24T04:31:52.589Z,0.73
2023-04-24T04:34:20.584Z,1.20
2023-04-24T04:36:47.807Z,5.27
2023-04-24T04:39:36.035Z,1.70
2023-04-24T04:42:07.903Z,0.87
2023-04-24T04:44:40.992Z,2.60
2023-04-24T04:47:11.909Z,1.47
2023-04-24T04:49:40.050Z,1.70
2023-04-24T04:52:12.764Z,1.93
2023-04-24T04:54:40.285Z,1.00
2023-04-24T04:57:07.635Z,2.60
2023-04-24T04:59:36.200Z,1.80
2023-04-24T05:02:07.656Z,3.23
2023-04-24T05:04:35.405Z,1.40
2023-04-24T05:07:02.852Z,3.73
2023-04-24T05:09:33.341Z,1.87
2023-04-24T05:12:06.310Z,1.67
2023-04-24T05:14:39.020Z,2.60
2023-04-24T05:17:06.596Z,1.80
2023-04-24T05:19:37.044Z,4.90
2023-04-24T05:22:06.179Z,5.50
2023-04-24T05:24:35.281Z,3.07
2023-04-24T05:27:19.414Z,3.17
2023-04-24T05:29:46.545Z,3.60
2023-04-24T05:32:14.362Z,3.63
2023-04-24T05:34:41.482Z,3.17
2023-04-24T05:37:11.080Z,5.67
2023-04-24T05:39:38.907Z,6.87
2023-04-24T05:42:06.752Z,3.10
2023-04-24T05:44:34.068Z,7.13
2023-04-24T05:47:01.837Z,5.17
2023-04-24T05:49:29.526Z,2.67
2023-04-24T05:51:58.190Z,3.63
2023-04-24T05:54:25.300Z,3.67
2023-04-24T05:56:53.132Z,3.63
2023-04-24T05:59:31.138Z,3.67
2023-04-24T06:01:58.732Z,6.33
2023-04-24T06:04:26.350Z,5.47
2023-04-24T06:06:57.199Z,6.80
2023-04-24T06:09:24.962Z,4.73
2023-04-24T06:11:55.109Z,4.73
2023-04-24T06:14:27.734Z,3.00
2023-04-24T06:17:24.158Z,4.67
2023-04-24T06:19:51.909Z,4.87
2023-04-24T06:22:20.181Z,4.53
2023-04-24T06:24:49.398Z,3.43
2023-04-24T06:27:16.501Z,3.50
2023-04-24T06:29:44.003Z,5.00
2023-04-24T06:32:11.320Z,2.80
2023-04-24T06:34:38.498Z,3.20
2023-04-24T06:37:05.674Z,2.33
2023-04-24T06:39:32.753Z,1.37
2023-04-24T06:42:00.061Z,1.60
2023-04-24T06:44:27.349Z,5.10
2023-04-24T06:46:54.380Z,3.03
2023-04-24T06:49:21.787Z,4.07
2023-04-24T06:51:48.807Z,1.33
2023-04-24T06:54:16.016Z,1.73
2023-04-24T06:56:43.250Z,2.10
2023-04-24T06:59:10.548Z,3.33
2023-04-24T07:01:37.629Z,1.70
2023-04-24T07:04:04.918Z,1.70
2023-04-24T07:06:32.825Z,1.80
2023-04-24T07:09:01.319Z,2.83
2023-04-24T07:11:30.429Z,3.30
2023-04-24T07:13:57.523Z,4.07
2023-04-24T07:16:24.652Z,4.33
2023-04-24T07:18:52.571Z,3.27
2023-04-24T07:21:19.594Z,6.33
2023-04-24T07:23:46.657Z,5.30
2023-04-24T07:26:15.917Z,3.83
2023-04-24T07:28:43.135Z,3.20
2023-04-24T07:31:10.384Z,5.13
2023-04-24T07:33:37.729Z,6.17
2023-04-24T07:36:05.648Z,5.07
2023-04-24T07:38:33.156Z,3.63
2023-04-24T07:41:00.195Z,5.00
2023-04-24T07:43:28.388Z,7.83
2023-04-24T07:45:55.891Z,3.43
2023-04-24T07:48:23.351Z,10.87
2023-04-24T07:50:50.397Z,4.13
2023-04-24T07:53:17.864Z,5.13
2023-04-24T07:55:44.970Z,4.37
2023-04-24T07:58:12.062Z,4.37
2023-04-24T08:00:39.326Z,4.10
2023-04-24T08:03:06.803Z,6.27
2023-04-24T08:05:34.180Z,7.03
2023-04-24T08:08:01.496Z,4.73
2023-04-24T08:10:28.600Z,4.53
2023-04-24T08:12:56.497Z,3.60
2023-04-24T08:15:23.580Z,4.70
2023-04-24T08:17:51.634Z,4.83
2023-04-24T08:20:18.766Z,7.13
2023-04-24T08:22:48.335Z,13.57
2023-04-24T08:25:15.925Z,4.17
2023-04-24T08:27:43.777Z,7.17
2023-04-24T08:30:11.611Z,6.80
2023-04-24T08:32:38.918Z,4.87
2023-04-24T08:35:06.450Z,11.27
2023-04-24T08:37:34.091Z,6.57
2023-04-24T08:40:01.761Z,3.50
2023-04-24T08:42:33.721Z,5.97
2023-04-24T08:45:01.241Z,5.67
2023-04-24T08:47:30.042Z,6.13
2023-04-24T08:49:57.758Z,6.33
2023-04-24T08:52:26.882Z,6.67
2023-04-24T08:54:55.806Z,5.37
2023-04-24T08:57:23.490Z,3.67
2023-04-24T08:59:50.723Z,6.33
2023-04-24T09:02:18.505Z,4.40
2023-04-24T09:04:47.750Z,7.73
2023-04-24T09:07:18.304Z,5.70
2023-04-24T09:09:45.872Z,8.00
2023-04-24T09:12:13.706Z,3.30
2023-04-24T09:14:43.753Z,7.97
2023-04-24T09:17:11.045Z,5.83
2023-04-24T09:19:38.577Z,7.13
2023-04-24T09:22:10.163Z,8.33
2023-04-24T09:24:37.673Z,6.33
2023-04-24T09:27:05.528Z,5.00
2023-04-24T09:29:34.066Z,8.77
2023-04-24T09:32:19.011Z,5.23
2023-04-24T09:34:48.990Z,5.63
2023-04-24T09:37:31.627Z,5.53
2023-04-24T09:40:22.152Z,7.07
2023-04-24T09:43:03.656Z,8.23
2023-04-24T09:45:41.120Z,6.07
2023-04-24T09:48:11.973Z,9.53
2023-04-24T09:50:39.672Z,7.37
2023-04-24T09:53:11.851Z,8.67
2023-04-24T09:55:47.316Z,10.03
2023-04-24T09:58:14.638Z,7.13
2023-04-24T10:00:42.231Z,6.67
2023-04-24T10:03:09.640Z,4.40
2023-04-24T10:05:38.260Z,7.23
2023-04-24T10:08:10.469Z,4.80
2023-04-24T10:10:42.136Z,4.20
2023-04-24T10:13:11.613Z,5.07
2023-04-24T10:15:40.014Z,4.27
2023-04-24T10:18:10.054Z,4.50
2023-04-24T10:20:39.408Z,7.20
2023-04-24T10:23:06.762Z,5.00
2023-04-24T10:25:36.971Z,4.73
2023-04-24T10:28:04.860Z,7.30
2023-04-24T10:30:37.943Z,3.83
2023-04-24T10:33:07.921Z,7.50
2023-04-24T10:35:45.286Z,4.17
2023-04-24T10:38:19.939Z,8.70
2023-04-24T10:40:47.103Z,6.60
2023-04-24T10:43:18.578Z,7.10
2023-04-24T10:46:05.764Z,5.50
2023-04-24T10:48:33.526Z,4.97
2023-04-24T10:51:00.865Z,4.97
2023-04-24T10:53:31.754Z,5.80
2023-04-24T10:56:10.988Z,6.57
2023-04-24T10:58:46.074Z,6.07
2023-04-24T11:01:34.133Z,4.07
2023-04-24T11:04:04.318Z,5.90
2023-04-24T11:06:37.276Z,2.77
2023-04-24T11:09:10.005Z,9.17
2023-04-24T11:11:38.708Z,5.13
2023-04-24T11:14:08.007Z,4.10
2023-04-24T11:16:46.671Z,7.20
2023-04-24T11:19:32.154Z,8.27
2023-04-24T11:22:14.900Z,4.33
2023-04-24T11:24:52.060Z,6.17
2023-04-24T11:27:25.493Z,5.20
2023-04-24T11:30:04.540Z,7.17
2023-04-24T11:32:48.282Z,6.17
2023-04-24T11:35:20.835Z,9.33
2023-04-24T11:40:26.598Z,3.77
2023-04-24T11:42:57.652Z,6.57
2023-04-24T11:45:27.021Z,4.27
2023-04-24T11:47:54.161Z,5.20
2023-04-24T11:50:24.156Z,3.37
2023-04-24T11:52:51.963Z,3.77
2023-04-24T11:55:29.592Z,3.20
2023-04-24T11:57:58.785Z,3.83
2023-04-24T12:00:31.495Z,3.70
2023-04-24T12:03:10.626Z,3.03
2023-04-24T12:05:38.421Z,3.70
2023-04-24T12:08:06.292Z,3.10
2023-04-24T12:10:34.444Z,4.37
2023-04-24T12:13:01.716Z,5.13
2023-04-24T12:15:29.498Z,6.47
2023-04-24T12:17:57.349Z,3.30
2023-04-24T12:20:33.486Z,4.00
2023-04-24T12:23:02.279Z,3.80
2023-04-24T12:25:34.012Z,5.17
2023-04-24T12:28:19.274Z,5.50
2023-04-24T12:30:50.130Z,6.80
2023-04-24T12:33:21.518Z,3.47
2023-04-24T12:35:52.510Z,5.80
2023-04-24T12:38:25.457Z,4.07
2023-04-24T12:41:06.418Z,3.27
2023-04-24T12:43:33.825Z,4.73
2023-04-24T12:46:01.080Z,7.77
2023-04-24T12:48:29.097Z,5.83
2023-04-24T12:50:57.692Z,6.63
2023-04-24T12:53:27.719Z,6.50
2023-04-24T12:55:54.867Z,5.80
2023-04-24T12:58:22.246Z,8.03
2023-04-24T13:00:49.477Z,6.00
2023-04-24T13:03:16.816Z,4.60
2023-04-24T13:05:45.086Z,4.00
2023-04-24T13:08:13.864Z,5.17
2023-04-24T13:10:41.812Z,3.63
2023-04-24T13:13:09.777Z,7.07
2023-04-24T13:15:37.281Z,6.23
2023-04-24T13:18:04.570Z,4.03
2023-04-24T13:20:31.857Z,3.73
2023-04-24T13:22:58.868Z,3.43
2023-04-24T13:25:26.377Z,5.13
2023-04-24T13:27:53.608Z,5.30
2023-04-24T13:30:21.157Z,5.87
2023-04-24T13:32:48.374Z,7.30
2023-04-24T13:35:15.773Z,2.93
2023-04-24T13:37:42.832Z,5.70
2023-04-24T13:40:11.029Z,3.17
2023-04-24T13:42:38.343Z,5.43
2023-04-24T13:45:21.225Z,4.67
2023-04-24T13:47:52.740Z,3.73
2023-04-24T13:50:20.559Z,3.17
2023-04-24T13:52:47.851Z,4.93
2023-04-24T13:55:15.014Z,3.20
2023-04-24T13:57:42.106Z,5.33
2023-04-24T14:00:11.705Z,4.93
2023-04-24T14:02:39.242Z,5.87
2023-04-24T14:05:07.686Z,6.80
2023-04-24T14:07:35.172Z,5.40
2023-04-24T14:10:02.305Z,2.30
2023-04-24T14:12:29.555Z,4.83
2023-04-24T14:14:56.845Z,9.77
2023-04-24T14:17:24.025Z,3.37
2023-04-24T14:19:53.036Z,3.50
2023-04-24T14:22:21.294Z,2.77
2023-04-24T14:24:48.376Z,2.40
2023-04-24T14:27:15.592Z,3.07
2023-04-24T14:29:42.634Z,5.23
2023-04-24T14:32:10.150Z,3.40
2023-04-24T14:34:37.308Z,3.83
2023-04-24T14:37:04.942Z,4.50
2023-04-24T14:39:32.021Z,3.10
2023-04-24T14:41:59.337Z,4.53
2023-04-24T14:44:26.534Z,2.53
2023-04-24T14:46:54.260Z,3.43
2023-04-24T14:49:21.971Z,2.00
2023-04-24T14:51:49.056Z,3.93
2023-04-24T14:54:16.236Z,6.23
2023-04-24T14:56:44.864Z,4.50
2023-04-24T14:59:12.139Z,7.63
2023-04-24T15:01:39.259Z,3.30
2023-04-24T15:04:06.559Z,4.47
2023-04-24T15:06:33.904Z,3.67
2023-04-24T15:09:01.275Z,5.87
2023-04-24T15:11:28.667Z,3.93
2023-04-24T15:13:56.937Z,3.90
2023-04-24T15:16:25.202Z,3.37
2023-04-24T15:18:52.398Z,3.93
2023-04-24T15:21:19.676Z,4.20
2023-04-24T15:23:46.815Z,3.97
2023-04-24T15:26:14.506Z,4.80
2023-04-24T15:28:41.623Z,4.53
2023-04-24T15:31:08.981Z,5.73
2023-04-24T15:33:36.377Z,8.40
2023-04-24T15:36:03.658Z,4.90
2023-04-24T15:38:30.813Z,4.17
2023-04-24T15:40:58.085Z,5.30
2023-04-24T15:43:25.449Z,6.37
2023-04-24T15:45:52.797Z,4.73
2023-04-24T15:48:20.223Z,4.43
2023-04-24T15:50:47.522Z,8.53
2023-04-24T15:53:14.618Z,5.17
2023-04-24T15:55:41.816Z,2.13
2023-04-24T15:58:08.896Z,7.07
2023-04-24T16:00:37.203Z,5.27
2023-04-24T16:03:05.322Z,4.13
2023-04-24T16:05:34.206Z,7.23
2023-04-24T16:08:01.311Z,6.93
2023-04-24T16:10:28.661Z,4.90
2023-04-24T16:12:56.009Z,4.40
2023-04-24T16:15:23.654Z,3.50
2023-04-24T16:17:51.485Z,6.70
2023-04-24T16:20:19.011Z,6.07
2023-04-24T16:22:46.106Z,4.03
2023-04-24T16:25:13.616Z,3.07
2023-04-24T16:27:40.964Z,5.40
2023-04-24T16:30:09.556Z,4.47
2023-04-24T16:32:36.692Z,5.03
2023-04-24T16:35:04.215Z,5.63
2023-04-24T16:37:31.311Z,6.40
2023-04-24T16:39:58.524Z,5.57
2023-04-24T16:42:25.596Z,10.70
2023-04-24T16:44:52.960Z,6.73
2023-04-24T16:47:20.452Z,5.57
2023-04-24T16:49:48.275Z,4.43
2023-04-24T16:52:15.485Z,5.17
2023-04-24T16:54:42.758Z,6.03
2023-04-24T16:57:09.858Z,9.20
2023-04-24T16:59:37.155Z,7.43
2023-04-24T17:02:04.220Z,3.77
2023-04-24T17:04:32.394Z,4.30
2023-04-24T17:06:59.632Z,5.77
2023-04-24T17:09:26.824Z,6.47
2023-04-24T17:11:53.935Z,5.50
2023-04-24T17:14:23.137Z,5.30
2023-04-24T17:16:50.350Z,9.37
2023-04-24T17:19:17.729Z,8.37
2023-04-24T17:21:45.945Z,6.03
2023-04-24T17:24:13.112Z,5.20
2023-04-24T17:26:40.201Z,7.23
2023-04-24T17:29:07.349Z,6.07
2023-04-24T17:31:34.422Z,5.83
2023-04-24T17:34:01.827Z,6.33
2023-04-24T17:36:28.925Z,3.47
2023-04-24T17:38:56.220Z,5.63
2023-04-24T17:41:23.327Z,4.27
2023-04-24T17:43:51.077Z,3.87
2023-04-24T17:46:18.387Z,6.47
2023-04-24T17:48:47.048Z,5.57
2023-04-24T17:51:16.168Z,5.23
2023-04-24T17:53:43.241Z,4.97
2023-04-24T17:56:10.539Z,8.40
2023-04-24T17:58:37.669Z,6.07
2023-04-24T18:01:05.540Z,5.07
2023-04-24T18:03:32.765Z,4.87
2023-04-24T18:05:59.982Z,3.80
2023-04-24T18:08:27.161Z,3.47
2023-04-24T18:10:54.506Z,8.00
2023-04-24T18:13:21.609Z,4.40
2023-04-24T18:15:48.696Z,6.00
2023-04-24T18:18:17.813Z,7.87
2023-04-24T18:20:46.412Z,5.60
2023-04-24T18:23:13.536Z,5.67
2023-04-24T18:25:40.842Z,5.03
2023-04-24T18:28:08.264Z,7.40
2023-04-24T18:30:35.770Z,6.40
2023-04-24T18:33:03.314Z,6.33
2023-04-24T18:35:30.918Z,7.97
2023-04-24T18:37:58.148Z,5.37
2023-04-24T18:40:26.010Z,9.53
2023-04-24T18:42:53.325Z,5.73
2023-04-24T18:45:20.480Z,4.80
2023-04-24T18:47:47.699Z,4.17
2023-04-24T18:50:15.266Z,7.80
2023-04-24T18:52:42.531Z,5.40
2023-04-24T18:55:10.014Z,6.07
2023-04-24T18:57:37.309Z,6.50
2023-04-24T19:00:05.505Z,5.37
2023-04-24T19:02:34.201Z,6.63
2023-04-24T19:05:01.563Z,6.03
2023-04-24T19:07:29.410Z,6.80
2023-04-24T19:09:56.468Z,5.03
2023-04-24T19:12:23.578Z,6.97
2023-04-24T19:14:51.996Z,7.97
2023-04-24T19:17:23.676Z,6.47
2023-04-24T19:19:51.455Z,5.70
2023-04-24T19:22:20.111Z,7.60
2023-04-24T19:24:47.739Z,8.00
2023-04-24T19:27:14.983Z,4.60
2023-04-24T19:29:42.296Z,8.13
2023-04-24T19:32:09.621Z,6.57
2023-04-24T19:34:38.983Z,8.03
2023-04-24T19:37:08.182Z,5.33
2023-04-24T19:39:35.640Z,4.50
2023-04-24T19:42:07.265Z,8.17
2023-04-24T19:44:35.998Z,6.03
2023-04-24T19:47:03.410Z,3.97
2023-04-24T19:49:31.033Z,4.90
2023-04-24T19:51:58.088Z,6.60
2023-04-24T19:54:25.615Z,5.27
2023-04-24T19:56:52.867Z,3.33
2023-04-24T19:59:19.911Z,3.90
2023-04-24T20:01:47.334Z,7.20
2023-04-24T20:04:14.664Z,6.13
2023-04-24T20:06:41.994Z,7.10
2023-04-24T20:09:09.440Z,7.53
2023-04-24T20:11:36.780Z,8.00
2023-04-24T20:14:03.939Z,6.67
2023-04-24T20:16:31.440Z,6.60
2023-04-24T20:18:59.077Z,5.33
2023-04-24T20:21:26.868Z,5.93
2023-04-24T20:23:54.088Z,4.80
2023-04-24T20:26:21.619Z,5.07
2023-04-24T20:28:49.209Z,5.53
2023-04-24T20:31:16.753Z,6.73
2023-04-24T20:33:45.705Z,7.70
2023-04-24T20:36:13.022Z,7.40
2023-04-24T20:38:40.107Z,5.23
2023-04-24T20:41:08.926Z,5.83
2023-04-24T20:43:36.357Z,9.50
2023-04-24T20:46:03.671Z,6.77
2023-04-24T20:48:31.119Z,5.30
2023-04-24T20:50:58.388Z,4.87
2023-04-24T20:53:25.577Z,11.83
2023-04-24T20:55:52.877Z,5.50
2023-04-24T20:58:21.146Z,6.07
2023-04-24T21:00:48.744Z,8.00
2023-04-24T21:03:16.201Z,6.23
2023-04-24T21:05:43.552Z,5.37
2023-04-24T21:08:10.794Z,7.07
2023-04-24T21:10:38.058Z,5.40
2023-04-24T21:13:05.086Z,8.30
2023-04-24T21:15:33.182Z,5.30
2023-04-24T21:18:00.663Z,7.07
2023-04-24T21:20:27.942Z,5.17
2023-04-24T21:22:54.968Z,4.00
2023-04-24T21:25:22.460Z,5.47
2023-04-24T21:27:49.775Z,4.30
2023-04-24T21:30:16.911Z,5.50
2023-04-24T21:32:44.085Z,6.07
2023-04-24T21:35:11.513Z,4.73
2023-04-24T21:37:39.895Z,4.63
2023-04-24T21:40:08.499Z,5.97
2023-04-24T21:42:36.072Z,6.63
2023-04-24T21:45:04.355Z,6.70
2023-04-24T21:47:32.357Z,7.40
2023-04-24T21:49:59.440Z,4.87
2023-04-24T21:52:26.471Z,5.30
2023-04-24T21:54:53.820Z,4.80
2023-04-24T21:57:21.102Z,7.13
2023-04-24T21:59:48.412Z,5.43
2023-04-24T22:02:15.634Z,7.17
2023-04-24T22:04:43.340Z,8.53
2023-04-24T22:07:10.659Z,5.23
2023-04-24T22:09:37.753Z,6.83
2023-04-24T22:12:05.530Z,6.33
2023-04-24T22:14:33.027Z,7.73
2023-04-24T22:17:00.198Z,6.60
2023-04-24T22:19:28.393Z,6.20
2023-04-24T22:21:56.137Z,9.37
2023-04-24T22:24:23.354Z,6.80
2023-04-24T22:26:50.421Z,6.30
2023-04-24T22:29:17.622Z,5.83
2023-04-24T22:31:45.519Z,8.77
2023-04-24T22:34:12.641Z,7.13
2023-04-24T22:36:39.704Z,7.33
2023-04-24T22:39:07.473Z,5.77
2023-04-24T22:41:34.626Z,4.07
2023-04-24T22:44:02.260Z,8.20
2023-04-24T22:46:31.180Z,7.33
2023-04-24T22:48:58.557Z,8.97
2023-04-24T22:51:26.174Z,5.50
2023-04-24T22:53:54.736Z,9.80
2023-04-24T22:56:21.852Z,6.40
2023-04-24T22:58:49.077Z,4.63
2023-04-24T23:01:16.808Z,6.03
2023-04-24T23:03:44.018Z,9.43
2023-04-24T23:06:11.299Z,9.23
2023-04-24T23:08:38.382Z,9.60
2023-04-24T23:11:05.498Z,7.50
2023-04-24T23:13:32.868Z,6.30
2023-04-24T23:16:00.342Z,6.47
2023-04-24T23:18:27.563Z,5.77
2023-04-24T23:20:54.631Z,5.17
2023-04-24T23:23:21.731Z,8.53
2023-04-24T23:25:48.918Z,8.73
2023-04-24T23:28:16.041Z,8.03
2023-04-24T23:30:43.110Z,9.07
2023-04-24T23:33:10.999Z,6.93
2023-04-24T23:35:38.274Z,5.13
2023-04-24T23:38:05.456Z,6.03
2023-04-24T23:40:32.506Z,6.03
2023-04-24T23:43:06.646Z,6.57
2023-04-24T23:45:35.677Z,10.30
2023-04-24T23:48:04.157Z,6.87
2023-04-24T23:50:31.399Z,6.13
2023-04-24T23:52:58.566Z,9.23
2023-04-24T23:55:26.101Z,7.77
2023-04-24T23:57:53.142Z,9.60
